createdAt,value
2018-09-20T00:00:12.597Z,62.35
2018-09-20T00:02:40.933Z,62.41
2018-09-20T00:05:09.254Z,62.84
2018-09-20T00:07:37.591Z,62.69
2018-09-20T00:10:06.140Z,63.17
2018-09-20T00:12:34.501Z,63.50
2018-09-20T00:15:02.848Z,63.63
2018-09-20T00:17:31.161Z,63.51
2018-09-20T00:19:59.497Z,63.69
2018-09-20T00:22:27.844Z,63.68
2018-09-20T00:24:56.189Z,64.10
2018-09-20T00:27:24.520Z,63.70
2018-09-20T00:29:52.857Z,64.04
2018-09-20T00:32:21.172Z,63.64
2018-09-20T00:34:49.537Z,64.22
2018-09-20T00:37:17.860Z,64.47
2018-09-20T00:39:46.179Z,64.46
2018-09-20T00:42:14.493Z,64.74
2018-09-20T00:44:42.875Z,64.68
2018-09-20T00:47:11.187Z,64.05
2018-09-20T00:49:39.524Z,64.60
2018-09-20T00:52:07.831Z,64.30
2018-09-20T00:54:36.333Z,64.32
2018-09-20T00:57:04.720Z,64.89
2018-09-20T00:59:33.064Z,65.36
2018-09-20T01:02:01.413Z,65.51
2018-09-20T01:04:29.749Z,65.53
2018-09-20T01:06:58.093Z,65.48
2018-09-20T01:09:26.453Z,65.71
2018-09-20T01:11:54.794Z,66.14
2018-09-20T01:14:23.205Z,66.34
2018-09-20T01:16:51.544Z,65.97
2018-09-20T01:19:19.919Z,67.04
2018-09-20T01:21:48.258Z,66.94
2018-09-20T01:24:16.597Z,66.78
2018-09-20T01:26:44.939Z,66.59
2018-09-20T01:29:13.285Z,66.66
2018-09-20T01:31:41.609Z,66.44
2018-09-20T01:34:09.974Z,66.63
2018-09-20T01:36:38.313Z,66.99
2018-09-20T01:39:13.397Z,67.31
2018-09-20T01:41:41.764Z,67.45
2018-09-20T01:44:10.463Z,67.75
2018-09-20T01:46:38.819Z,68.67
2018-09-20T01:49:08.080Z,68.37
2018-09-20T01:51:36.413Z,68.57
2018-09-20T01:54:04.773Z,68.79
2018-09-20T01:56:33.120Z,68.56
2018-09-20T01:59:01.916Z,68.66
2018-09-20T02:01:30.425Z,69.53
2018-09-20T02:03:58.772Z,69.96
2018-09-20T02:06:27.141Z,69.14
2018-09-20T02:08:55.668Z,69.55
2018-09-20T02:11:24.075Z,70.44
2018-09-20T02:13:52.433Z,69.77
2018-09-20T02:16:20.794Z,70.36
2018-09-20T02:18:49.143Z,70.55
2018-09-20T02:21:17.528Z,70.81
2018-09-20T02:23:45.881Z,70.68
2018-09-20T02:26:14.248Z,71.13
2018-09-20T02:28:42.592Z,71.22
2018-09-20T02:31:10.946Z,71.37
2018-09-20T02:33:39.278Z,70.07
2018-09-20T02:36:07.627Z,71.03
2018-09-20T02:38:36.019Z,71.35
2018-09-20T02:41:04.404Z,71.82
2018-09-20T02:43:32.778Z,71.99
2018-09-20T02:46:01.145Z,72.38
2018-09-20T02:48:29.824Z,72.46
2018-09-20T02:50:58.206Z,72.47
2018-09-20T02:53:26.558Z,72.50
2018-09-20T02:55:54.929Z,72.54
2018-09-20T02:58:23.276Z,72.74
2018-09-20T03:00:51.645Z,72.85
2018-09-20T03:03:19.982Z,72.77
2018-09-20T03:05:48.341Z,72.72
2018-09-20T03:08:16.700Z,72.27
2018-09-20T03:10:45.093Z,72.38
2018-09-20T03:13:13.441Z,72.18
2018-09-20T03:15:41.890Z,72.27
2018-09-20T03:18:10.242Z,72.40
2018-09-20T03:20:38.605Z,72.32
2018-09-20T03:23:06.978Z,72.78
2018-09-20T03:25:35.523Z,72.35
2018-09-20T03:28:03.895Z,73.09
2018-09-20T03:30:32.454Z,72.69
2018-09-20T03:33:00.686Z,73.02
2018-09-20T03:35:29.061Z,73.04
2018-09-20T03:37:57.422Z,73.02
2018-09-20T03:40:25.760Z,72.82
2018-09-20T03:42:54.101Z,72.75
2018-09-20T03:45:22.524Z,73.48
2018-09-20T03:47:50.869Z,72.78
2018-09-20T03:50:19.220Z,72.52
2018-09-20T03:52:47.780Z,72.63
2018-09-20T03:55:16.121Z,72.43
2018-09-20T03:57:44.465Z,72.07
2018-09-20T04:00:12.825Z,72.12
2018-09-20T04:02:41.257Z,72.65
2018-09-20T04:05:09.589Z,73.77
2018-09-20T04:07:37.941Z,74.00
2018-09-20T04:10:06.309Z,74.18
2018-09-20T04:12:34.711Z,73.41
2018-09-20T04:15:03.069Z,74.13
2018-09-20T04:17:31.628Z,73.81
2018-09-20T04:19:59.973Z,74.53
2018-09-20T04:22:28.334Z,74.99
2018-09-20T04:24:56.680Z,74.99
2018-09-20T04:27:25.033Z,75.18
2018-09-20T04:29:53.381Z,75.71
2018-09-20T04:32:21.750Z,75.64
2018-09-20T04:34:50.102Z,75.77
2018-09-20T04:37:18.452Z,75.73
2018-09-20T04:39:46.796Z,75.59
2018-09-20T04:42:15.157Z,75.41
2018-09-20T04:44:43.560Z,76.09
2018-09-20T04:47:18.175Z,76.37
2018-09-20T04:49:46.501Z,76.45
2018-09-20T04:52:14.851Z,75.75
2018-09-20T04:54:43.185Z,75.30
2018-09-20T04:57:11.524Z,76.11
2018-09-20T04:59:39.857Z,76.17
2018-09-20T05:02:08.221Z,76.42
2018-09-20T05:04:36.732Z,76.30
2018-09-20T05:07:05.106Z,76.16
2018-09-20T05:09:33.466Z,75.61
2018-09-20T05:12:01.825Z,75.91
2018-09-20T05:14:30.168Z,76.56
2018-09-20T05:16:58.531Z,76.58
2018-09-20T05:19:26.956Z,76.95
2018-09-20T05:21:55.689Z,76.39
2018-09-20T05:24:24.009Z,76.41
2018-09-20T05:26:52.348Z,75.79
2018-09-20T05:29:21.772Z,76.09
2018-09-20T05:31:50.113Z,75.97
2018-09-20T05:34:18.481Z,75.98
2018-09-20T05:36:46.849Z,75.21
2018-09-20T05:39:15.280Z,74.81
2018-09-20T05:41:43.751Z,75.32
2018-09-20T05:44:12.168Z,74.89
2018-09-20T05:46:41.084Z,74.60
2018-09-20T05:49:09.440Z,74.27
2018-09-20T05:51:37.777Z,74.24
2018-09-20T05:54:06.296Z,74.27
2018-09-20T05:56:34.632Z,74.16
2018-09-20T05:59:03.152Z,73.47
2018-09-20T06:01:31.524Z,73.92
2018-09-20T06:03:59.880Z,72.68
2018-09-20T06:06:28.213Z,71.83
2018-09-20T06:08:56.564Z,72.01
2018-09-20T06:11:24.888Z,71.85
2018-09-20T06:13:53.642Z,71.22
2018-09-20T06:16:21.984Z,71.66
2018-09-20T06:18:50.367Z,71.52
2018-09-20T06:21:18.752Z,71.27
2018-09-20T06:23:47.127Z,70.51
2018-09-20T06:26:15.451Z,71.32
2018-09-20T06:28:43.796Z,70.03
2018-09-20T06:31:12.124Z,70.14
2018-09-20T06:33:40.481Z,70.08
2018-09-20T06:36:08.884Z,69.72
2018-09-20T06:38:37.240Z,70.20
2018-09-20T06:41:05.629Z,69.88
2018-09-20T06:43:33.956Z,70.09
2018-09-20T06:46:02.296Z,69.25
2018-09-20T06:48:30.716Z,68.71
2018-09-20T06:50:59.072Z,68.81
2018-09-20T06:53:27.436Z,68.26
2018-09-20T06:55:55.792Z,68.62
2018-09-20T06:58:24.152Z,68.43
2018-09-20T07:00:52.502Z,68.46
2018-09-20T07:03:20.888Z,67.57
2018-09-20T07:05:49.229Z,67.67
2018-09-20T07:08:17.604Z,67.08
2018-09-20T07:10:46.098Z,67.58
2018-09-20T07:13:14.504Z,67.07
2018-09-20T07:15:42.849Z,66.79
2018-09-20T07:18:11.242Z,66.92
2018-09-20T07:20:39.599Z,66.52
2018-09-20T07:23:08.128Z,67.23
2018-09-20T07:25:36.525Z,66.88
2018-09-20T07:28:04.905Z,67.35
2018-09-20T07:30:33.290Z,66.79
2018-09-20T07:33:01.985Z,65.79
2018-09-20T07:35:30.325Z,63.93
2018-09-20T07:37:58.679Z,64.46
2018-09-20T07:40:27.068Z,64.93
2018-09-20T07:42:55.425Z,65.90
2018-09-20T07:45:23.780Z,66.40
2018-09-20T07:47:52.133Z,65.86
2018-09-20T07:50:20.521Z,66.02
2018-09-20T07:52:48.933Z,66.32
2018-09-20T07:55:17.293Z,65.39
2018-09-20T07:57:45.652Z,64.69
2018-09-20T08:00:14.033Z,64.68
2018-09-20T08:02:42.403Z,65.20
2018-09-20T08:05:10.740Z,65.81
2018-09-20T08:07:39.068Z,65.36
2018-09-20T08:10:07.420Z,64.66
2018-09-20T08:12:35.835Z,65.41
2018-09-20T08:15:04.163Z,65.84
2018-09-20T08:17:32.475Z,65.17
2018-09-20T08:20:00.799Z,64.76
2018-09-20T08:22:29.135Z,64.63
2018-09-20T08:24:57.508Z,64.81
2018-09-20T08:27:25.828Z,63.50
2018-09-20T08:29:54.143Z,63.17
2018-09-20T08:32:22.459Z,62.28
2018-09-20T08:34:50.800Z,63.26
2018-09-20T08:37:19.156Z,62.07
2018-09-20T08:39:47.431Z,60.41
2018-09-20T08:42:15.813Z,59.95
2018-09-20T08:44:44.156Z,61.12
2018-09-20T08:47:12.483Z,61.92
2018-09-20T08:49:40.839Z,61.77
2018-09-20T08:52:09.152Z,60.54
2018-09-20T08:54:37.463Z,59.84
2018-09-20T08:57:06.183Z,59.86
2018-09-20T08:59:34.512Z,58.67
2018-09-20T09:02:02.909Z,57.75
2018-09-20T09:04:31.297Z,59.22
2018-09-20T09:06:59.670Z,58.89
2018-09-20T09:09:28.128Z,59.13
2018-09-20T09:11:56.507Z,58.43
2018-09-20T09:14:24.813Z,58.42
2018-09-20T09:16:53.149Z,57.59
2018-09-20T09:19:21.523Z,58.13
2018-09-20T09:21:49.841Z,58.10
2018-09-20T09:24:18.222Z,58.04
2018-09-20T09:26:46.545Z,57.28
2018-09-20T09:29:14.881Z,58.20
2018-09-20T09:31:43.220Z,55.52
2018-09-20T09:34:11.739Z,54.43
2018-09-20T09:36:40.067Z,55.73
2018-09-20T09:39:10.655Z,55.41
2018-09-20T09:41:39.013Z,54.34
2018-09-20T09:44:07.336Z,55.62
2018-09-20T09:46:35.666Z,55.45
2018-09-20T09:49:04.036Z,54.69
2018-09-20T09:51:32.375Z,54.42
2018-09-20T09:54:00.740Z,54.89
2018-09-20T09:56:29.230Z,54.85
2018-09-20T09:58:57.589Z,55.01
2018-09-20T10:01:26.009Z,53.79
2018-09-20T10:03:54.364Z,54.84
2018-09-20T10:06:22.741Z,54.15
2018-09-20T10:08:51.132Z,55.03
2018-09-20T10:11:19.569Z,55.81
2018-09-20T10:13:48.060Z,55.41
2018-09-20T10:16:16.361Z,54.35
2018-09-20T10:18:44.705Z,54.46
2018-09-20T10:21:13.074Z,55.90
2018-09-20T10:23:41.447Z,55.69
2018-09-20T10:26:09.816Z,54.78
2018-09-20T10:28:38.162Z,53.42
2018-09-20T10:31:06.512Z,53.03
2018-09-20T10:33:34.859Z,52.72
2018-09-20T10:36:03.218Z,52.76
2018-09-20T10:39:01.208Z,53.00
2018-09-20T10:41:29.561Z,53.39
2018-09-20T10:43:58.105Z,53.58
2018-09-20T10:46:26.473Z,54.75
2018-09-20T10:48:54.812Z,55.02
2018-09-20T10:51:23.164Z,55.08
2018-09-20T10:53:51.526Z,54.89
2018-09-20T10:56:19.873Z,53.51
2018-09-20T10:58:48.212Z,53.73
2018-09-20T11:01:16.588Z,54.58
2018-09-20T11:03:44.928Z,54.28
2018-09-20T11:06:13.273Z,55.08
2018-09-20T11:08:41.637Z,55.66
2018-09-20T11:11:09.972Z,55.09
2018-09-20T11:13:38.304Z,55.18
2018-09-20T11:16:06.689Z,55.12
2018-09-20T11:18:35.013Z,56.12
2018-09-20T11:21:03.352Z,56.64
2018-09-20T11:23:31.684Z,56.64
2018-09-20T11:26:00.149Z,57.11
2018-09-20T11:28:28.380Z,57.42
2018-09-20T11:30:56.728Z,56.33
2018-09-20T11:33:25.109Z,56.10
2018-09-20T11:35:53.461Z,55.61
2018-09-20T11:38:21.811Z,55.62
2018-09-20T11:40:50.156Z,55.67
2018-09-20T11:43:18.484Z,55.71
2018-09-20T11:45:46.854Z,54.69
2018-09-20T11:48:15.169Z,55.01
2018-09-20T11:50:43.499Z,53.63
2018-09-20T11:53:11.829Z,53.47
2018-09-20T11:55:40.178Z,53.60
2018-09-20T11:58:09.343Z,54.07
2018-09-20T12:00:37.716Z,53.16
2018-09-20T12:03:06.244Z,54.16
2018-09-20T12:05:34.581Z,54.13
2018-09-20T12:08:02.957Z,53.94
2018-09-20T12:10:31.394Z,54.35
2018-09-20T12:12:59.728Z,54.63
2018-09-20T12:15:28.062Z,54.92
2018-09-20T12:17:56.397Z,54.47
2018-09-20T12:20:25.601Z,53.43
2018-09-20T12:22:55.072Z,53.22
2018-09-20T12:25:23.396Z,53.01
2018-09-20T12:27:52.401Z,53.83
2018-09-20T12:30:21.098Z,52.35
2018-09-20T12:32:49.478Z,51.04
2018-09-20T12:35:17.850Z,51.23
2018-09-20T12:37:46.229Z,51.09
2018-09-20T12:40:14.629Z,51.52
2018-09-20T12:42:42.972Z,51.42
2018-09-20T12:45:11.354Z,52.70
2018-09-20T12:47:39.688Z,52.72
2018-09-20T12:50:08.073Z,52.29
2018-09-20T12:52:36.399Z,52.32
2018-09-20T12:55:04.980Z,52.21
2018-09-20T12:57:33.427Z,50.95
2018-09-20T13:00:01.780Z,50.78
2018-09-20T13:02:30.181Z,50.98
2018-09-20T13:04:58.536Z,50.41
2018-09-20T13:07:26.928Z,49.93
2018-09-20T13:09:55.284Z,48.33
2018-09-20T13:12:23.633Z,49.47
2018-09-20T13:14:51.985Z,49.17
2018-09-20T13:17:20.347Z,48.63
2018-09-20T13:19:48.738Z,49.09
2018-09-20T13:22:17.095Z,47.69
2018-09-20T13:24:45.552Z,48.00
2018-09-20T13:27:13.884Z,47.00
2018-09-20T13:29:42.294Z,48.44
2018-09-20T13:32:10.680Z,48.18
2018-09-20T13:34:39.028Z,47.53
2018-09-20T13:37:07.389Z,46.88
2018-09-20T13:39:35.736Z,47.04
2018-09-20T13:42:04.092Z,47.71
2018-09-20T13:44:32.453Z,49.10
2018-09-20T13:47:00.912Z,49.01
2018-09-20T13:49:29.296Z,48.72
2018-09-20T13:51:57.712Z,48.92
2018-09-20T13:54:26.017Z,49.48
2018-09-20T13:56:54.348Z,49.30
2018-09-20T13:59:22.691Z,50.16
2018-09-20T14:01:51.036Z,50.56
2018-09-20T14:04:19.401Z,51.60
2018-09-20T14:06:47.784Z,51.40
2018-09-20T14:09:16.165Z,50.47
2018-09-20T14:11:44.520Z,50.18
2018-09-20T14:14:12.868Z,50.31
2018-09-20T14:16:41.217Z,50.31
2018-09-20T14:19:09.739Z,49.98
2018-09-20T14:21:38.081Z,50.42
2018-09-20T14:24:06.717Z,50.44
2018-09-20T14:26:35.052Z,50.90
2018-09-20T14:29:03.397Z,51.53
2018-09-20T14:31:31.732Z,51.72
2018-09-20T14:34:00.072Z,51.73
2018-09-20T14:36:28.421Z,51.61
2018-09-20T14:38:56.769Z,51.48
2018-09-20T14:41:25.147Z,51.59
2018-09-20T14:43:53.613Z,51.57
2018-09-20T14:46:21.981Z,52.39
2018-09-20T14:48:50.297Z,52.30
2018-09-20T14:51:18.664Z,52.56
2018-09-20T14:53:47.054Z,52.86
2018-09-20T14:56:15.458Z,52.32
2018-09-20T14:58:43.846Z,52.35
2018-09-20T15:01:12.228Z,52.69
2018-09-20T15:03:40.621Z,52.06
2018-09-20T15:06:09.014Z,52.43
2018-09-20T15:08:37.381Z,52.10
2018-09-20T15:11:05.912Z,52.49
2018-09-20T15:13:34.241Z,52.52
2018-09-20T15:16:02.644Z,52.92
2018-09-20T15:18:31.017Z,52.49
2018-09-20T15:20:59.387Z,52.26
2018-09-20T15:23:27.735Z,52.58
2018-09-20T15:25:56.092Z,52.62
2018-09-20T15:28:24.435Z,52.09
2018-09-20T15:30:52.789Z,52.97
2018-09-20T15:33:21.132Z,53.23
2018-09-20T15:35:49.561Z,53.22
2018-09-20T15:38:17.924Z,52.78
2018-09-20T15:40:46.357Z,53.45
2018-09-20T15:43:14.734Z,53.01
2018-09-20T15:45:43.237Z,52.92
2018-09-20T15:48:11.577Z,53.23
2018-09-20T15:50:39.934Z,52.90
2018-09-20T15:53:08.321Z,52.85
2018-09-20T15:55:36.693Z,52.68
2018-09-20T15:58:05.101Z,53.08
2018-09-20T16:00:33.562Z,52.83
2018-09-20T16:03:01.898Z,53.02
2018-09-20T16:05:30.208Z,53.18
2018-09-20T16:07:58.552Z,53.83
2018-09-20T16:10:26.902Z,53.77
2018-09-20T16:12:55.261Z,54.32
2018-09-20T16:15:23.588Z,54.32
2018-09-20T16:17:51.932Z,54.09
2018-09-20T16:20:20.380Z,53.57
2018-09-20T16:22:48.704Z,54.08
2018-09-20T16:25:17.044Z,54.02
2018-09-20T16:27:45.416Z,54.44
2018-09-20T16:30:43.128Z,53.64
2018-09-20T16:33:26.021Z,54.24
2018-09-20T16:36:04.964Z,54.22
2018-09-20T16:38:45.652Z,53.80
2018-09-20T16:41:16.923Z,54.35
2018-09-20T16:43:45.248Z,54.18
2018-09-20T16:46:13.576Z,54.22
2018-09-20T16:48:41.971Z,53.59
2018-09-20T16:51:10.308Z,54.37
2018-09-20T16:53:38.657Z,54.92
2018-09-20T16:56:13.873Z,54.38
2018-09-20T16:58:46.346Z,54.47
2018-09-20T17:01:14.692Z,54.53
2018-09-20T17:03:43.010Z,54.65
2018-09-20T17:06:11.724Z,54.71
2018-09-20T17:08:40.068Z,54.75
2018-09-20T17:11:08.391Z,54.07
2018-09-20T17:13:36.775Z,54.46
2018-09-20T17:16:05.185Z,54.31
2018-09-20T17:18:33.528Z,54.56
2018-09-20T17:21:01.856Z,54.48
2018-09-20T17:23:30.212Z,54.78
2018-09-20T17:25:58.571Z,54.38
2018-09-20T17:28:26.883Z,54.63
2018-09-20T17:30:55.232Z,54.70
2018-09-20T17:33:23.539Z,54.83
2018-09-20T17:35:52.388Z,54.29
2018-09-20T17:38:21.643Z,54.54
2018-09-20T17:40:54.107Z,55.08
2018-09-20T17:43:25.874Z,54.79
2018-09-20T17:45:54.632Z,55.06
2018-09-20T17:48:23.032Z,55.24
2018-09-20T17:50:51.944Z,54.63
2018-09-20T17:53:21.130Z,55.38
2018-09-20T17:55:51.221Z,55.87
2018-09-20T17:58:20.325Z,55.85
2018-09-20T18:00:48.885Z,54.78
2018-09-20T18:03:17.261Z,53.77
2018-09-20T18:05:45.689Z,54.00
2018-09-20T18:08:14.081Z,55.09
2018-09-20T18:10:42.421Z,56.60
2018-09-20T18:13:10.837Z,56.85
2018-09-20T18:15:39.239Z,57.44
2018-09-20T18:18:07.656Z,57.38
2018-09-20T18:20:35.891Z,57.89
2018-09-20T18:23:04.190Z,58.82
2018-09-20T18:25:35.022Z,58.98
2018-09-20T18:28:03.862Z,59.34
2018-09-20T18:30:32.158Z,59.67
2018-09-20T18:33:01.216Z,59.79
2018-09-20T18:35:29.767Z,59.67
2018-09-20T18:37:58.112Z,59.90
2018-09-20T18:40:26.414Z,59.86
2018-09-20T18:42:54.722Z,59.90
2018-09-20T18:45:23.111Z,60.09
2018-09-20T18:47:51.414Z,60.24
2018-09-20T18:50:19.716Z,60.54
2018-09-20T18:52:48.128Z,60.55
2018-09-20T18:55:16.513Z,59.99
2018-09-20T18:57:44.890Z,60.65
2018-09-20T19:00:13.230Z,61.04
2018-09-20T19:02:41.581Z,61.18
2018-09-20T19:05:09.935Z,61.59
2018-09-20T19:07:38.317Z,61.86
2018-09-20T19:12:57.192Z,62.01
2018-09-20T19:15:25.472Z,61.97
2018-09-20T19:17:53.882Z,62.20
2018-09-20T19:20:22.897Z,62.53
2018-09-20T19:22:51.234Z,63.54
2018-09-20T19:25:19.608Z,62.97
2018-09-20T19:27:47.993Z,63.50
2018-09-20T19:30:16.353Z,63.47
2018-09-20T19:32:44.693Z,63.80
2018-09-20T19:35:13.078Z,63.78
2018-09-20T19:37:41.429Z,63.67
2018-09-20T19:40:09.812Z,63.71
2018-09-20T19:42:38.525Z,64.13
2018-09-20T19:45:06.968Z,62.96
2018-09-20T19:47:35.289Z,63.29
2018-09-20T19:50:03.708Z,64.06
2018-09-20T19:52:32.074Z,63.99
2018-09-20T19:55:00.552Z,63.96
2018-09-20T19:57:29.012Z,64.62
2018-09-20T19:59:57.409Z,64.60
2018-09-20T20:02:25.749Z,64.63
2018-09-20T20:04:54.153Z,64.96
2018-09-20T20:07:22.669Z,64.51
2018-09-20T20:09:51.033Z,64.38
2018-09-20T20:12:19.812Z,65.21
2018-09-20T20:14:48.152Z,65.16
2018-09-20T20:17:16.501Z,64.31
2018-09-20T20:19:45.101Z,64.15
2018-09-20T20:22:13.429Z,64.72
2018-09-20T20:24:41.769Z,65.00
2018-09-20T20:27:10.161Z,65.56
2018-09-20T20:29:38.555Z,65.23
2018-09-20T20:32:07.457Z,65.27
2018-09-20T20:34:35.816Z,66.08
2018-09-20T20:37:04.270Z,65.94
2018-09-20T20:39:32.599Z,65.72
2018-09-20T20:42:01.009Z,66.22
2018-09-20T20:44:29.328Z,66.07
2018-09-20T20:46:57.639Z,66.07
2018-09-20T20:49:25.985Z,66.29
2018-09-20T20:51:54.304Z,66.08
2018-09-20T20:54:22.628Z,66.39
2018-09-20T20:56:51.049Z,65.75
2018-09-20T20:59:19.485Z,65.83
2018-09-20T21:01:47.837Z,65.81
2018-09-20T21:04:16.214Z,65.82
2018-09-20T21:06:44.556Z,66.36
2018-09-20T21:09:13.153Z,65.92
2018-09-20T21:11:41.689Z,66.29
2018-09-20T21:14:10.053Z,65.88
2018-09-20T21:16:38.387Z,66.10
2018-09-20T21:19:06.780Z,66.11
2018-09-20T21:21:35.121Z,65.77
2018-09-20T21:24:03.497Z,65.50
2018-09-20T21:26:31.865Z,64.61
2018-09-20T21:29:00.199Z,65.22
2018-09-20T21:31:28.552Z,64.67
2018-09-20T21:33:56.901Z,64.38
2018-09-20T21:36:25.748Z,64.17
2018-09-20T21:38:54.337Z,64.73
2018-09-20T21:41:22.707Z,64.99
2018-09-20T21:43:51.089Z,64.47
2018-09-20T21:46:19.392Z,64.11
2018-09-20T21:48:47.745Z,64.21
2018-09-20T21:51:16.091Z,64.48
2018-09-20T21:53:44.435Z,63.74
2018-09-20T21:56:12.781Z,63.56
2018-09-20T21:58:41.165Z,63.91
2018-09-20T22:01:13.025Z,63.62
2018-09-20T22:03:41.453Z,62.87
2018-09-20T22:06:09.933Z,62.29
2018-09-20T22:08:38.807Z,62.54
2018-09-20T22:11:07.220Z,62.18
2018-09-20T22:13:35.596Z,61.88
2018-09-20T22:16:04.015Z,61.82
2018-09-20T22:18:32.333Z,61.40
2018-09-20T22:21:00.680Z,61.34
2018-09-20T22:23:29.040Z,61.06
2018-09-20T22:25:57.372Z,60.46
2018-09-20T22:28:25.723Z,61.22
2018-09-20T22:30:55.081Z,61.35
2018-09-20T22:33:23.508Z,60.82
2018-09-20T22:35:51.844Z,60.90
2018-09-20T22:38:20.188Z,61.29
2018-09-20T22:40:48.512Z,61.12
2018-09-20T22:43:16.905Z,61.00
2018-09-20T22:45:45.265Z,60.74
2018-09-20T22:48:13.593Z,60.34
2018-09-20T22:50:41.920Z,60.44
2018-09-20T22:53:10.257Z,60.69
2018-09-20T22:55:38.692Z,60.84
2018-09-20T22:58:07.395Z,60.52
2018-09-20T23:00:35.760Z,60.64
2018-09-20T23:03:04.060Z,60.41
2018-09-20T23:05:32.364Z,60.65
2018-09-20T23:08:00.700Z,60.54
2018-09-20T23:10:29.003Z,60.71
2018-09-20T23:12:57.372Z,60.74
2018-09-20T23:15:25.920Z,60.79
2018-09-20T23:17:54.248Z,60.68
2018-09-20T23:20:22.583Z,60.78
2018-09-20T23:22:50.916Z,60.89
2018-09-20T23:25:19.321Z,61.02
2018-09-20T23:27:47.638Z,61.20
2018-09-20T23:30:16.028Z,61.44
2018-09-20T23:32:44.328Z,60.94
2018-09-20T23:35:12.647Z,60.95
2018-09-20T23:37:40.996Z,60.91
2018-09-20T23:40:09.344Z,61.21
2018-09-20T23:42:37.669Z,61.16
2018-09-20T23:45:06.083Z,60.99
2018-09-20T23:47:34.387Z,61.68
2018-09-20T23:50:02.757Z,61.95
2018-09-20T23:52:31.120Z,62.06
2018-09-20T23:54:59.455Z,62.04
2018-09-20T23:57:27.975Z,61.71
2018-09-20T23:59:56.499Z,61.86
